Time;durP1;ratioP1;P1;durP2;ratioP2;P2;SDS_P1;SDS_P2;PMS_P1;PMS_P2;Temp;Humidity;BMP_temperature;BMP_pressure;BME280_temperature;BME280_humidity;BME280_pressure;Samples;Min_cycle;Max_cycle;Signal;HPM_P1;HPM_P2
2021/01/09 00:01:03;;;;;;;;;;;24.10;23.60;;;;;;491939;240;1018;-68
2021/01/09 00:03:04;;;;;;;;;;;24.10;23.50;;;;;;491927;240;1302;-69
2021/01/09 00:05:05;;;;;;;;;;;24.10;23.50;;;;;;491945;240;950;-68
2021/01/09 00:07:07;;;;;;;;;;;24.10;23.50;;;;;;491865;240;1358;-68
2021/01/09 00:09:08;;;;;;;;;;;24.10;23.60;;;;;;491838;240;2132;-68
2021/01/09 00:11:09;;;;;;;;;;;24.00;23.60;;;;;;491962;240;975;-68
2021/01/09 00:13:10;;;;;;;;;;;24.00;23.60;;;;;;491927;240;1201;-68
2021/01/09 00:15:12;;;;;;;;;;;24.00;23.60;;;;;;491999;240;1139;-69
2021/01/09 00:17:13;;;;;;;;;;;24.00;23.60;;;;;;491950;240;1009;-68
2021/01/09 00:19:14;;;;;;;;;;;24.00;23.60;;;;;;491995;240;958;-68
2021/01/09 00:21:15;;;;;;;;;;;24.00;23.60;;;;;;491897;240;1070;-68
2021/01/09 00:23:17;;;;;;;;;;;24.00;23.60;;;;;;491899;240;950;-68
2021/01/09 00:25:18;;;;;;;;;;;24.00;23.60;;;;;;491941;240;1318;-68
2021/01/09 00:27:19;;;;;;;;;;;24.00;23.60;;;;;;491922;240;1088;-68
2021/01/09 00:29:21;;;;;;;;;;;24.00;23.60;;;;;;491866;240;2191;-68
2021/01/09 00:31:22;;;;;;;;;;;24.00;23.60;;;;;;491773;240;1122;-68
2021/01/09 00:33:23;;;;;;;;;;;24.00;23.60;;;;;;491808;240;1016;-68
2021/01/09 00:35:24;;;;;;;;;;;24.00;23.60;;;;;;491809;240;1043;-68
2021/01/09 00:37:26;;;;;;;;;;;23.90;23.60;;;;;;491924;240;1107;-68
2021/01/09 00:39:28;;;;;;;;;;;23.90;23.60;;;;;;491911;240;976;-69
2021/01/09 00:41:29;;;;;;;;;;;23.90;23.60;;;;;;491870;240;1088;-69
2021/01/09 00:43:30;;;;;;;;;;;23.90;23.60;;;;;;491778;240;1080;-68
2021/01/09 00:45:31;;;;;;;;;;;23.90;23.60;;;;;;491897;240;1244;-68
2021/01/09 00:47:32;;;;;;;;;;;23.90;23.50;;;;;;491858;240;1104;-68
2021/01/09 00:49:34;;;;;;;;;;;23.90;23.60;;;;;;491987;240;2188;-68
2021/01/09 00:51:35;;;;;;;;;;;23.90;23.60;;;;;;491911;240;1218;-69
2021/01/09 00:53:36;;;;;;;;;;;23.90;23.50;;;;;;491829;240;1077;-68
2021/01/09 00:55:38;;;;;;;;;;;23.90;23.60;;;;;;491958;240;1090;-68
2021/01/09 00:57:39;;;;;;;;;;;23.90;23.50;;;;;;491835;240;1219;-68
2021/01/09 00:59:40;;;;;;;;;;;23.90;23.50;;;;;;491911;240;1160;-68
2021/01/09 01:01:41;;;;;;;;;;;23.90;23.50;;;;;;491893;240;1179;-68
2021/01/09 01:03:43;;;;;;;;;;;23.90;23.60;;;;;;491912;240;1170;-68
2021/01/09 01:05:44;;;;;;;;;;;23.90;23.60;;;;;;491910;240;1245;-68
2021/01/09 01:07:45;;;;;;;;;;;23.90;23.60;;;;;;491949;240;1064;-68
2021/01/09 01:09:46;;;;;;;;;;;23.90;23.50;;;;;;491988;240;2144;-68
2021/01/09 01:11:48;;;;;;;;;;;23.90;23.50;;;;;;491936;240;1188;-68
2021/01/09 01:13:49;;;;;;;;;;;23.90;23.60;;;;;;491909;240;926;-68
2021/01/09 01:15:50;;;;;;;;;;;23.90;23.50;;;;;;491834;240;1157;-68
2021/01/09 01:17:52;;;;;;;;;;;23.90;23.50;;;;;;491827;240;1046;-68
2021/01/09 01:19:53;;;;;;;;;;;23.90;23.50;;;;;;491939;240;1135;-68
2021/01/09 01:21:54;;;;;;;;;;;23.90;23.50;;;;;;491852;240;1160;-69
2021/01/09 01:23:55;;;;;;;;;;;23.90;23.50;;;;;;491909;240;1137;-68
2021/01/09 01:25:57;;;;;;;;;;;23.90;23.40;;;;;;491855;240;1236;-68
2021/01/09 01:27:58;;;;;;;;;;;23.90;23.40;;;;;;491844;240;1131;-68
2021/01/09 01:29:59;;;;;;;;;;;23.90;23.40;;;;;;491959;240;2116;-68
2021/01/09 01:32:01;;;;;;;;;;;23.90;23.40;;;;;;491863;240;1209;-68
2021/01/09 01:34:02;;;;;;;;;;;24.00;23.50;;;;;;491757;240;1034;-68
2021/01/09 01:36:03;;;;;;;;;;;23.90;23.40;;;;;;491856;240;1019;-68
2021/01/09 01:38:04;;;;;;;;;;;23.90;23.40;;;;;;491816;240;1233;-68
2021/01/09 01:40:06;;;;;;;;;;;24.00;23.50;;;;;;491846;240;1089;-68
2021/01/09 01:42:07;;;;;;;;;;;24.00;23.50;;;;;;491905;240;1173;-68
2021/01/09 01:44:08;;;;;;;;;;;24.00;23.40;;;;;;491843;240;1538;-68
2021/01/09 01:46:09;;;;;;;;;;;23.90;23.40;;;;;;491273;241;1347;-68
2021/01/09 01:48:11;;;;;;;;;;;23.90;23.40;;;;;;491972;240;1164;-68
2021/01/09 01:50:12;;;;;;;;;;;23.90;23.40;;;;;;491897;240;2179;-68
2021/01/09 01:52:13;;;;;;;;;;;23.90;23.40;;;;;;491918;240;1121;-69
2021/01/09 01:54:15;;;;;;;;;;;24.00;23.40;;;;;;491895;240;1125;-68
2021/01/09 01:56:16;;;;;;;;;;;23.90;23.40;;;;;;491891;240;1079;-68
2021/01/09 01:58:17;;;;;;;;;;;24.00;23.40;;;;;;491892;240;1031;-68
2021/01/09 02:00:21;;;;;;;;;;;23.90;23.30;;;;;;491888;240;1181;-68
2021/01/09 02:02:20;;;;;;;;;;;24.00;23.40;;;;;;491740;242;1414;-68
2021/01/09 02:04:22;;;;;;;;;;;24.00;23.40;;;;;;491934;240;1188;-68
2021/01/09 02:06:23;;;;;;;;;;;24.00;23.40;;;;;;491998;240;971;-68
2021/01/09 02:08:24;;;;;;;;;;;24.00;23.40;;;;;;491880;240;1114;-68
2021/01/09 02:10:25;;;;;;;;;;;24.00;23.40;;;;;;491929;240;2133;-68
2021/01/09 02:12:27;;;;;;;;;;;24.00;23.40;;;;;;491897;240;1092;-68
2021/01/09 02:14:28;;;;;;;;;;;23.90;23.30;;;;;;491903;240;961;-68
2021/01/09 02:16:29;;;;;;;;;;;24.00;23.30;;;;;;491867;240;1297;-68
2021/01/09 02:18:30;;;;;;;;;;;24.00;23.30;;;;;;491853;240;1140;-68
2021/01/09 02:20:32;;;;;;;;;;;24.00;23.40;;;;;;491961;240;963;-68
2021/01/09 02:22:33;;;;;;;;;;;24.00;23.30;;;;;;491843;240;1129;-68
2021/01/09 02:24:34;;;;;;;;;;;24.00;23.30;;;;;;491913;240;1085;-68
2021/01/09 02:26:36;;;;;;;;;;;24.00;23.30;;;;;;491984;240;986;-68
2021/01/09 02:28:37;;;;;;;;;;;24.00;23.30;;;;;;491902;240;1222;-68
2021/01/09 02:30:40;;;;;;;;;;;24.00;23.30;;;;;;491864;240;2132;-68
2021/01/09 02:32:41;;;;;;;;;;;24.00;23.30;;;;;;491907;242;1450;-68
2021/01/09 02:34:41;;;;;;;;;;;24.00;23.30;;;;;;491905;241;1440;-68
2021/01/09 02:36:43;;;;;;;;;;;24.00;23.30;;;;;;491923;240;1065;-68
2021/01/09 02:38:44;;;;;;;;;;;24.00;23.30;;;;;;491957;240;953;-68
2021/01/09 02:40:45;;;;;;;;;;;24.00;23.30;;;;;;491974;240;1166;-68
2021/01/09 02:42:46;;;;;;;;;;;24.00;23.30;;;;;;491890;240;1290;-68
2021/01/09 02:44:48;;;;;;;;;;;24.00;23.30;;;;;;491898;240;974;-68
2021/01/09 02:46:49;;;;;;;;;;;24.00;23.30;;;;;;491799;240;1206;-68
2021/01/09 02:48:50;;;;;;;;;;;24.00;23.30;;;;;;491926;240;1086;-68
2021/01/09 02:50:51;;;;;;;;;;;24.00;23.30;;;;;;491882;240;2184;-68
2021/01/09 02:52:53;;;;;;;;;;;24.00;23.30;;;;;;491898;240;1126;-68
2021/01/09 02:54:54;;;;;;;;;;;24.00;23.30;;;;;;491970;240;1003;-68
2021/01/09 02:56:55;;;;;;;;;;;24.00;23.30;;;;;;491808;240;1099;-68
2021/01/09 02:58:57;;;;;;;;;;;24.00;23.30;;;;;;491859;240;1333;-68
2021/01/09 03:00:58;;;;;;;;;;;24.00;23.30;;;;;;491934;240;1307;-68
2021/01/09 03:02:59;;;;;;;;;;;24.00;23.30;;;;;;491829;240;1106;-68
2021/01/09 03:05:00;;;;;;;;;;;24.00;23.30;;;;;;491874;240;983;-68
2021/01/09 03:07:02;;;;;;;;;;;24.00;23.30;;;;;;491856;240;1178;-68
2021/01/09 03:09:03;;;;;;;;;;;24.00;23.30;;;;;;491882;240;1179;-68
2021/01/09 03:11:04;;;;;;;;;;;23.90;23.30;;;;;;491864;240;2192;-68
2021/01/09 03:13:06;;;;;;;;;;;24.00;23.30;;;;;;491896;240;1087;-68
2021/01/09 03:15:07;;;;;;;;;;;24.00;23.30;;;;;;491977;240;968;-68
2021/01/09 03:17:08;;;;;;;;;;;24.00;23.30;;;;;;491889;240;1132;-68
2021/01/09 03:19:09;;;;;;;;;;;23.90;23.30;;;;;;491970;240;1063;-68
2021/01/09 03:21:11;;;;;;;;;;;24.00;23.30;;;;;;491973;240;939;-68
2021/01/09 03:23:12;;;;;;;;;;;24.00;23.40;;;;;;491904;240;1101;-68
2021/01/09 03:25:13;;;;;;;;;;;23.90;23.30;;;;;;491935;240;952;-69
2021/01/09 03:27:14;;;;;;;;;;;24.00;23.30;;;;;;491869;240;1191;-69
2021/01/09 03:29:16;;;;;;;;;;;23.90;23.30;;;;;;491923;240;982;-68
2021/01/09 03:31:17;;;;;;;;;;;23.90;23.30;;;;;;491879;240;2109;-68
2021/01/09 03:33:18;;;;;;;;;;;23.90;23.30;;;;;;491925;240;1190;-69
2021/01/09 03:35:22;;;;;;;;;;;23.90;23.30;;;;;;491939;240;941;-69
2021/01/09 03:37:21;;;;;;;;;;;23.90;23.30;;;;;;491902;241;1472;-68
2021/01/09 03:39:22;;;;;;;;;;;23.90;23.30;;;;;;491920;240;951;-68
2021/01/09 03:41:24;;;;;;;;;;;23.90;23.30;;;;;;491872;240;1221;-68
2021/01/09 03:43:25;;;;;;;;;;;23.90;23.30;;;;;;491814;240;1048;-68
2021/01/09 03:45:26;;;;;;;;;;;23.90;23.30;;;;;;491906;240;944;-68
2021/01/09 03:47:28;;;;;;;;;;;23.90;23.30;;;;;;491798;240;1390;-68
2021/01/09 03:49:29;;;;;;;;;;;23.90;23.30;;;;;;491911;240;972;-69
2021/01/09 03:51:30;;;;;;;;;;;23.90;23.30;;;;;;491987;240;2180;-68
2021/01/09 03:53:33;;;;;;;;;;;23.90;23.30;;;;;;492041;240;962;-68
2021/01/09 03:55:34;;;;;;;;;;;23.90;23.40;;;;;;491868;240;1018;-68
2021/01/09 03:57:36;;;;;;;;;;;23.90;23.30;;;;;;491833;240;1214;-68
2021/01/09 03:59:37;;;;;;;;;;;23.90;23.30;;;;;;491862;240;966;-68
2021/01/09 04:01:38;;;;;;;;;;;23.90;23.30;;;;;;491867;240;1233;-68
2021/01/09 04:03:40;;;;;;;;;;;23.90;23.30;;;;;;491924;240;967;-68
2021/01/09 04:05:41;;;;;;;;;;;23.90;23.40;;;;;;491863;240;1103;-68
2021/01/09 04:07:42;;;;;;;;;;;23.90;23.40;;;;;;491903;240;1098;-68
2021/01/09 04:09:43;;;;;;;;;;;23.90;23.40;;;;;;491895;240;2179;-68
2021/01/09 04:11:45;;;;;;;;;;;23.90;23.40;;;;;;491700;240;1169;-68
2021/01/09 04:13:46;;;;;;;;;;;23.90;23.40;;;;;;491826;240;932;-68
2021/01/09 04:15:47;;;;;;;;;;;23.90;23.40;;;;;;491886;240;1290;-68
2021/01/09 04:17:48;;;;;;;;;;;23.90;23.40;;;;;;491925;240;1133;-68
2021/01/09 04:19:50;;;;;;;;;;;23.90;23.40;;;;;;491946;240;967;-68
2021/01/09 04:21:52;;;;;;;;;;;23.80;23.40;;;;;;491813;240;1105;-69
2021/01/09 04:23:53;;;;;;;;;;;23.90;23.40;;;;;;491807;240;1121;-68
2021/01/09 04:25:54;;;;;;;;;;;23.90;23.40;;;;;;491782;240;1294;-68
2021/01/09 04:27:56;;;;;;;;;;;23.80;23.30;;;;;;491819;240;1207;-68
2021/01/09 04:29:57;;;;;;;;;;;23.90;23.40;;;;;;491916;240;2120;-68
2021/01/09 04:31:58;;;;;;;;;;;23.90;23.40;;;;;;491851;240;1098;-68
2021/01/09 04:33:59;;;;;;;;;;;23.90;23.40;;;;;;491808;240;1081;-68
2021/01/09 04:36:01;;;;;;;;;;;23.80;23.40;;;;;;491902;240;949;-68
2021/01/09 04:38:02;;;;;;;;;;;23.80;23.40;;;;;;491832;240;1122;-68
2021/01/09 04:40:05;;;;;;;;;;;23.80;23.40;;;;;;491942;240;1145;-68
2021/01/09 04:42:05;;;;;;;;;;;23.90;23.40;;;;;;491836;242;1394;-68
2021/01/09 04:44:06;;;;;;;;;;;23.80;23.40;;;;;;491938;240;1028;-68
2021/01/09 04:46:07;;;;;;;;;;;23.80;23.40;;;;;;491927;240;1079;-68
2021/01/09 04:48:08;;;;;;;;;;;23.80;23.40;;;;;;491898;238;1319;-68
2021/01/09 04:50:10;;;;;;;;;;;23.80;23.40;;;;;;491892;240;2152;-68
2021/01/09 04:52:11;;;;;;;;;;;23.80;23.40;;;;;;491948;240;957;-68
2021/01/09 04:54:12;;;;;;;;;;;23.80;23.40;;;;;;491994;240;933;-68
2021/01/09 04:56:14;;;;;;;;;;;23.80;23.40;;;;;;491958;240;1074;-68
2021/01/09 04:58:15;;;;;;;;;;;23.80;23.40;;;;;;491942;240;939;-68
2021/01/09 05:00:16;;;;;;;;;;;23.80;23.40;;;;;;492007;240;1004;-68
2021/01/09 05:02:17;;;;;;;;;;;23.80;23.40;;;;;;491917;240;1132;-68
2021/01/09 05:04:19;;;;;;;;;;;23.80;23.40;;;;;;491877;240;944;-68
2021/01/09 05:06:20;;;;;;;;;;;23.80;23.40;;;;;;491870;240;987;-68
2021/01/09 05:08:22;;;;;;;;;;;23.80;23.40;;;;;;491853;240;1044;-68
2021/01/09 05:10:23;;;;;;;;;;;23.80;23.40;;;;;;491933;240;2180;-68
2021/01/09 05:12:24;;;;;;;;;;;23.80;23.40;;;;;;491808;240;1098;-68
2021/01/09 05:14:26;;;;;;;;;;;23.80;23.40;;;;;;491828;240;1078;-68
2021/01/09 05:16:27;;;;;;;;;;;23.80;23.40;;;;;;491860;240;1301;-68
2021/01/09 05:18:28;;;;;;;;;;;23.80;23.50;;;;;;491886;240;1116;-68
2021/01/09 05:20:29;;;;;;;;;;;23.80;23.50;;;;;;491941;240;993;-68
2021/01/09 05:22:31;;;;;;;;;;;23.80;23.50;;;;;;491827;240;1114;-68
2021/01/09 05:24:32;;;;;;;;;;;23.70;23.40;;;;;;491940;240;1003;-68
2021/01/09 05:26:33;;;;;;;;;;;23.70;23.40;;;;;;491913;240;1181;-68
2021/01/09 05:28:34;;;;;;;;;;;23.70;23.50;;;;;;491926;240;1052;-68
2021/01/09 05:30:36;;;;;;;;;;;23.70;23.40;;;;;;491945;240;2129;-68
2021/01/09 05:32:37;;;;;;;;;;;23.70;23.50;;;;;;491869;240;1130;-68
2021/01/09 05:34:38;;;;;;;;;;;23.70;23.40;;;;;;491921;240;1152;-68
2021/01/09 05:36:40;;;;;;;;;;;23.70;23.50;;;;;;491884;240;951;-69
2021/01/09 05:38:41;;;;;;;;;;;23.70;23.40;;;;;;491933;240;1093;-68
2021/01/09 05:40:42;;;;;;;;;;;23.70;23.40;;;;;;491952;240;1054;-68
2021/01/09 05:42:43;;;;;;;;;;;23.70;23.50;;;;;;491988;240;926;-68
2021/01/09 05:44:45;;;;;;;;;;;23.70;23.50;;;;;;491963;240;1077;-68
2021/01/09 05:46:46;;;;;;;;;;;23.70;23.50;;;;;;491984;240;1063;-68
2021/01/09 05:48:47;;;;;;;;;;;23.70;23.50;;;;;;491902;240;1278;-68
2021/01/09 05:50:48;;;;;;;;;;;23.70;23.50;;;;;;491852;240;2184;-68
2021/01/09 05:52:50;;;;;;;;;;;23.80;23.50;;;;;;491948;240;958;-68
2021/01/09 05:54:51;;;;;;;;;;;23.80;23.40;;;;;;491862;240;1051;-68
2021/01/09 05:56:52;;;;;;;;;;;23.80;23.40;;;;;;491861;240;1158;-68
2021/01/09 05:58:54;;;;;;;;;;;23.80;23.40;;;;;;491906;240;1190;-68
2021/01/09 06:00:55;;;;;;;;;;;23.80;23.40;;;;;;491909;240;944;-68
2021/01/09 06:02:56;;;;;;;;;;;23.80;23.40;;;;;;491915;240;1136;-68
2021/01/09 06:04:57;;;;;;;;;;;23.80;23.40;;;;;;491926;240;943;-68
2021/01/09 06:06:59;;;;;;;;;;;23.80;23.40;;;;;;491838;240;1127;-68
2021/01/09 06:09:00;;;;;;;;;;;23.80;23.40;;;;;;491908;240;1016;-68
2021/01/09 06:11:01;;;;;;;;;;;23.80;23.40;;;;;;491896;240;2167;-68
2021/01/09 06:13:03;;;;;;;;;;;23.80;23.40;;;;;;491894;240;1057;-68
2021/01/09 06:15:04;;;;;;;;;;;23.80;23.40;;;;;;492043;240;951;-68
2021/01/09 06:17:05;;;;;;;;;;;23.80;23.40;;;;;;491904;240;1316;-68
2021/01/09 06:19:06;;;;;;;;;;;23.80;23.40;;;;;;491838;240;1115;-68
2021/01/09 06:21:08;;;;;;;;;;;23.80;23.40;;;;;;491984;240;971;-68
2021/01/09 06:23:10;;;;;;;;;;;23.80;23.40;;;;;;491928;240;1095;-68
2021/01/09 06:25:11;;;;;;;;;;;23.80;23.40;;;;;;491957;240;961;-68
2021/01/09 06:27:12;;;;;;;;;;;23.90;23.40;;;;;;491970;240;1217;-68
2021/01/09 06:29:19;;;;;;;;;;;23.80;23.40;;;;;;491966;240;1217;-68
2021/01/09 06:31:21;;;;;;;;;;;23.80;23.40;;;;;;491977;240;2148;-68
2021/01/09 06:33:22;;;;;;;;;;;23.80;23.40;;;;;;491817;240;1139;-68
2021/01/09 06:35:23;;;;;;;;;;;23.80;23.30;;;;;;491906;240;945;-68
2021/01/09 06:37:24;;;;;;;;;;;23.80;23.40;;;;;;491882;240;1126;-68
2021/01/09 06:39:26;;;;;;;;;;;23.80;23.40;;;;;;491969;240;1029;-68
2021/01/09 06:41:27;;;;;;;;;;;23.80;23.40;;;;;;491916;240;945;-68
2021/01/09 06:43:28;;;;;;;;;;;23.80;23.40;;;;;;491970;240;1029;-68
2021/01/09 06:45:29;;;;;;;;;;;23.80;23.40;;;;;;492058;240;1076;-68
2021/01/09 06:47:31;;;;;;;;;;;23.80;23.40;;;;;;491862;240;1238;-68
2021/01/09 06:49:32;;;;;;;;;;;23.80;23.40;;;;;;491953;240;1176;-68
2021/01/09 06:51:33;;;;;;;;;;;23.80;23.40;;;;;;491912;240;2214;-68
2021/01/09 06:53:35;;;;;;;;;;;23.80;23.40;;;;;;491863;240;1148;-68
2021/01/09 06:55:36;;;;;;;;;;;23.80;23.40;;;;;;491926;240;975;-68
2021/01/09 06:57:37;;;;;;;;;;;23.80;23.30;;;;;;491863;240;1234;-68
2021/01/09 06:59:39;;;;;;;;;;;23.80;23.40;;;;;;491931;240;950;-68
2021/01/09 07:01:40;;;;;;;;;;;23.80;23.40;;;;;;491953;240;1172;-68
2021/01/09 07:03:41;;;;;;;;;;;23.80;23.40;;;;;;491799;240;1167;-68
2021/01/09 07:05:43;;;;;;;;;;;23.80;23.40;;;;;;491924;240;972;-68
2021/01/09 07:07:44;;;;;;;;;;;23.70;23.40;;;;;;491802;240;1344;-68
2021/01/09 07:09:45;;;;;;;;;;;23.70;23.40;;;;;;491897;240;1049;-68
2021/01/09 07:11:46;;;;;;;;;;;23.80;23.50;;;;;;491865;240;2129;-68
2021/01/09 07:13:48;;;;;;;;;;;23.70;23.40;;;;;;491867;240;1117;-68
2021/01/09 07:15:49;;;;;;;;;;;23.70;23.50;;;;;;491913;240;1048;-68
2021/01/09 07:17:51;;;;;;;;;;;23.70;23.50;;;;;;491863;240;1156;-68
2021/01/09 07:19:52;;;;;;;;;;;23.70;23.50;;;;;;491901;240;1149;-68
2021/01/09 07:21:54;;;;;;;;;;;23.70;23.50;;;;;;491867;240;1548;-68
2021/01/09 07:23:55;;;;;;;;;;;23.70;23.50;;;;;;491911;240;1080;-68
2021/01/09 07:25:56;;;;;;;;;;;23.70;23.50;;;;;;491905;240;929;-68
2021/01/09 07:27:57;;;;;;;;;;;23.70;23.50;;;;;;491938;240;917;-68
2021/01/09 07:30:00;;;;;;;;;;;23.70;23.50;;;;;;492002;240;954;-68
2021/01/09 07:32:00;;;;;;;;;;;23.60;23.50;;;;;;491872;241;2216;-68
2021/01/09 07:34:03;;;;;;;;;;;23.60;23.50;;;;;;491929;239;1219;-68
2021/01/09 07:36:03;;;;;;;;;;;23.60;23.50;;;;;;491728;242;1364;-68
2021/01/09 07:38:04;;;;;;;;;;;23.60;23.50;;;;;;491843;240;1016;-68
2021/01/09 07:40:05;;;;;;;;;;;23.60;23.60;;;;;;491874;240;950;-68
2021/01/09 07:42:06;;;;;;;;;;;23.60;23.60;;;;;;491858;240;1083;-68
2021/01/09 07:44:08;;;;;;;;;;;23.60;23.60;;;;;;491900;240;1040;-68
2021/01/09 07:46:09;;;;;;;;;;;23.60;23.60;;;;;;491842;240;1212;-68
2021/01/09 07:48:10;;;;;;;;;;;23.60;23.60;;;;;;491883;240;1104;-68
2021/01/09 07:50:11;;;;;;;;;;;23.60;23.60;;;;;;491840;240;1183;-68
2021/01/09 07:52:13;;;;;;;;;;;23.60;23.60;;;;;;491787;240;2184;-68
2021/01/09 07:54:14;;;;;;;;;;;23.60;23.60;;;;;;491860;240;1442;-68
2021/01/09 07:56:15;;;;;;;;;;;23.60;23.60;;;;;;491800;240;1195;-68
2021/01/09 07:58:17;;;;;;;;;;;23.60;23.60;;;;;;491915;240;972;-69
2021/01/09 08:00:18;;;;;;;;;;;23.50;23.60;;;;;;491890;240;1217;-68
2021/01/09 08:02:19;;;;;;;;;;;23.60;23.60;;;;;;491771;240;1146;-68
2021/01/09 08:04:21;;;;;;;;;;;23.60;23.60;;;;;;491865;240;1205;-68
2021/01/09 08:06:22;;;;;;;;;;;23.50;23.60;;;;;;491769;240;1284;-68
2021/01/09 08:08:23;;;;;;;;;;;23.50;23.60;;;;;;491850;240;1194;-68
2021/01/09 08:10:25;;;;;;;;;;;23.50;23.60;;;;;;491893;240;1018;-68
2021/01/09 08:12:26;;;;;;;;;;;23.50;23.70;;;;;;491841;240;2133;-68
2021/01/09 08:14:27;;;;;;;;;;;23.50;23.70;;;;;;491968;240;988;-68
2021/01/09 08:16:28;;;;;;;;;;;23.50;23.60;;;;;;491915;240;980;-68
2021/01/09 08:18:30;;;;;;;;;;;23.50;23.70;;;;;;491887;240;1129;-68
2021/01/09 08:20:31;;;;;;;;;;;23.50;23.60;;;;;;491918;240;1197;-69
2021/01/09 08:22:32;;;;;;;;;;;23.50;23.60;;;;;;491831;240;1128;-68
2021/01/09 08:24:33;;;;;;;;;;;23.50;23.70;;;;;;491954;240;955;-69
2021/01/09 08:26:35;;;;;;;;;;;23.50;23.70;;;;;;491971;240;1172;-68
2021/01/09 08:28:36;;;;;;;;;;;23.60;23.70;;;;;;491949;240;1156;-68
2021/01/09 08:30:38;;;;;;;;;;;23.50;23.60;;;;;;491910;240;953;-68
2021/01/09 08:32:39;;;;;;;;;;;23.60;23.60;;;;;;491862;240;2208;-68
2021/01/09 08:34:40;;;;;;;;;;;23.60;23.60;;;;;;491914;240;1159;-68
2021/01/09 08:36:42;;;;;;;;;;;23.60;23.60;;;;;;491920;240;950;-68
2021/01/09 08:38:43;;;;;;;;;;;23.60;23.60;;;;;;491915;240;915;-69
2021/01/09 08:40:44;;;;;;;;;;;23.60;23.60;;;;;;491811;240;1009;-68
2021/01/09 08:42:45;;;;;;;;;;;23.70;23.60;;;;;;491911;240;942;-68
2021/01/09 08:44:47;;;;;;;;;;;23.70;23.60;;;;;;491928;240;948;-68
2021/01/09 08:46:48;;;;;;;;;;;23.70;23.60;;;;;;491942;240;1054;-68
2021/01/09 08:48:50;;;;;;;;;;;23.70;23.50;;;;;;491897;240;993;-68
2021/01/09 08:50:51;;;;;;;;;;;23.70;23.50;;;;;;491871;240;1160;-68
2021/01/09 08:52:52;;;;;;;;;;;23.70;23.50;;;;;;491914;240;2141;-68
2021/01/09 08:54:53;;;;;;;;;;;23.70;23.50;;;;;;492010;240;1038;-68
2021/01/09 08:56:55;;;;;;;;;;;23.80;23.40;;;;;;491871;240;974;-68
2021/01/09 08:58:56;;;;;;;;;;;23.80;23.40;;;;;;491896;240;957;-68
2021/01/09 09:00:58;;;;;;;;;;;23.80;23.40;;;;;;491870;240;1063;-68
2021/01/09 09:02:59;;;;;;;;;;;23.80;23.40;;;;;;491917;240;974;-68
2021/01/09 09:05:00;;;;;;;;;;;23.80;23.40;;;;;;491897;240;1151;-68
2021/01/09 09:07:02;;;;;;;;;;;23.80;23.40;;;;;;491790;240;1180;-68
2021/01/09 09:09:03;;;;;;;;;;;23.80;23.40;;;;;;491889;240;1093;-68
2021/01/09 09:11:04;;;;;;;;;;;23.90;23.40;;;;;;491953;240;1188;-68
2021/01/09 09:13:05;;;;;;;;;;;23.90;23.40;;;;;;491938;240;2109;-68
2021/01/09 09:15:10;;;;;;;;;;;23.90;23.40;;;;;;491874;240;978;-68
2021/01/09 09:17:08;;;;;;;;;;;23.90;23.40;;;;;;491845;241;1432;-68
2021/01/09 09:19:10;;;;;;;;;;;23.90;23.40;;;;;;491816;240;1057;-68
2021/01/09 09:21:11;;;;;;;;;;;23.90;23.30;;;;;;491859;240;1199;-68
2021/01/09 09:23:12;;;;;;;;;;;23.90;23.40;;;;;;491859;240;1089;-68
2021/01/09 09:25:14;;;;;;;;;;;23.90;23.30;;;;;;491927;240;937;-68
2021/01/09 09:27:15;;;;;;;;;;;23.90;23.30;;;;;;491884;240;969;-68
2021/01/09 09:29:17;;;;;;;;;;;23.90;23.30;;;;;;491885;240;1031;-68
2021/01/09 09:31:17;;;;;;;;;;;23.90;23.30;;;;;;491789;240;1050;-68
2021/01/09 09:33:19;;;;;;;;;;;24.00;23.30;;;;;;491881;240;2137;-68
2021/01/09 09:35:20;;;;;;;;;;;24.00;23.30;;;;;;491895;240;1114;-68
2021/01/09 09:37:21;;;;;;;;;;;24.00;23.40;;;;;;491841;240;1253;-68
2021/01/09 09:39:22;;;;;;;;;;;24.00;23.30;;;;;;491837;240;1088;-68
2021/01/09 09:41:24;;;;;;;;;;;24.00;23.30;;;;;;491916;240;937;-68
2021/01/09 09:43:25;;;;;;;;;;;24.00;23.30;;;;;;491837;240;1160;-68
2021/01/09 09:45:26;;;;;;;;;;;24.00;23.30;;;;;;491818;240;1086;-68
2021/01/09 09:47:27;;;;;;;;;;;24.00;23.40;;;;;;491851;240;1154;-68
2021/01/09 09:49:29;;;;;;;;;;;24.00;23.40;;;;;;491881;240;1134;-68
2021/01/09 09:51:30;;;;;;;;;;;24.00;23.40;;;;;;491868;240;1176;-68
2021/01/09 09:53:34;;;;;;;;;;;24.00;23.40;;;;;;491812;240;2109;-68
2021/01/09 09:55:34;;;;;;;;;;;24.00;23.40;;;;;;491868;242;1500;-68
2021/01/09 09:57:36;;;;;;;;;;;24.00;23.40;;;;;;491916;240;1097;-68
2021/01/09 09:59:37;;;;;;;;;;;24.00;23.40;;;;;;491894;240;954;-68
2021/01/09 10:01:38;;;;;;;;;;;24.00;23.40;;;;;;491735;240;1084;-68
2021/01/09 10:03:39;;;;;;;;;;;24.00;23.40;;;;;;491750;240;1095;-68
2021/01/09 10:05:41;;;;;;;;;;;24.00;23.40;;;;;;491889;240;1105;-69
2021/01/09 10:07:42;;;;;;;;;;;24.00;23.40;;;;;;491862;240;1092;-68
2021/01/09 10:09:43;;;;;;;;;;;24.00;23.40;;;;;;491973;240;948;-68
2021/01/09 10:11:44;;;;;;;;;;;24.00;23.40;;;;;;491874;240;2187;-68
2021/01/09 10:13:46;;;;;;;;;;;24.00;23.40;;;;;;491860;240;1152;-68
2021/01/09 10:15:47;;;;;;;;;;;24.00;23.40;;;;;;491962;240;1159;-68
2021/01/09 10:17:48;;;;;;;;;;;24.00;23.40;;;;;;491880;240;1091;-68
2021/01/09 10:19:50;;;;;;;;;;;24.00;23.40;;;;;;491906;240;965;-68
2021/01/09 10:21:51;;;;;;;;;;;24.00;23.40;;;;;;491804;240;1145;-68
2021/01/09 10:23:52;;;;;;;;;;;24.00;23.40;;;;;;491920;240;1097;-68
2021/01/09 10:25:55;;;;;;;;;;;24.00;23.40;;;;;;491891;240;1203;-68
2021/01/09 10:27:55;;;;;;;;;;;24.00;23.40;;;;;;491915;240;1327;-68
2021/01/09 10:29:56;;;;;;;;;;;24.00;23.40;;;;;;492004;240;970;-68
2021/01/09 10:31:57;;;;;;;;;;;24.00;23.30;;;;;;491800;240;2141;-68
2021/01/09 10:33:58;;;;;;;;;;;24.00;23.30;;;;;;491919;240;1074;-68
2021/01/09 10:36:00;;;;;;;;;;;24.00;23.40;;;;;;491931;238;1335;-68
2021/01/09 10:38:01;;;;;;;;;;;24.10;23.40;;;;;;491803;240;1080;-68
2021/01/09 10:40:02;;;;;;;;;;;24.00;23.40;;;;;;491919;240;1015;-68
2021/01/09 10:42:04;;;;;;;;;;;24.00;23.40;;;;;;491910;240;1267;-68
2021/01/09 10:44:05;;;;;;;;;;;24.00;23.30;;;;;;491914;240;1243;-68
2021/01/09 10:46:06;;;;;;;;;;;24.10;23.40;;;;;;491975;240;1071;-68
2021/01/09 10:48:07;;;;;;;;;;;24.10;23.40;;;;;;491761;240;1093;-68
2021/01/09 10:50:09;;;;;;;;;;;24.10;23.40;;;;;;491866;240;1107;-68
2021/01/09 10:52:10;;;;;;;;;;;24.10;23.30;;;;;;491725;240;2164;-68
2021/01/09 10:54:11;;;;;;;;;;;24.10;23.30;;;;;;491928;240;905;-68
2021/01/09 10:56:13;;;;;;;;;;;24.20;23.30;;;;;;491810;240;1460;-68
2021/01/09 10:58:14;;;;;;;;;;;24.10;23.30;;;;;;491843;240;1056;-68
2021/01/09 11:00:15;;;;;;;;;;;24.10;23.30;;;;;;491882;240;1091;-68
2021/01/09 11:02:17;;;;;;;;;;;24.10;23.30;;;;;;491726;240;1207;-68
2021/01/09 11:04:18;;;;;;;;;;;24.10;23.30;;;;;;491964;240;1058;-68
2021/01/09 11:06:20;;;;;;;;;;;24.10;23.30;;;;;;491735;240;1282;-68
2021/01/09 11:08:21;;;;;;;;;;;24.10;23.30;;;;;;491849;240;1087;-68
2021/01/09 11:10:22;;;;;;;;;;;24.10;23.30;;;;;;491839;240;1219;-68
2021/01/09 11:12:24;;;;;;;;;;;24.10;23.30;;;;;;491790;240;2184;-68
2021/01/09 11:14:26;;;;;;;;;;;24.10;23.30;;;;;;491914;240;1101;-68
2021/01/09 11:16:27;;;;;;;;;;;24.10;23.40;;;;;;491765;242;1433;-69
2021/01/09 11:18:28;;;;;;;;;;;24.20;23.30;;;;;;491911;240;920;-68
2021/01/09 11:20:29;;;;;;;;;;;24.20;23.30;;;;;;491866;240;1132;-68
2021/01/09 11:22:30;;;;;;;;;;;24.10;23.30;;;;;;491850;240;1199;-68
2021/01/09 11:24:32;;;;;;;;;;;24.20;23.30;;;;;;491961;240;1124;-68
2021/01/09 11:26:33;;;;;;;;;;;24.20;23.30;;;;;;491752;240;1167;-68
2021/01/09 11:28:34;;;;;;;;;;;24.20;23.30;;;;;;491941;240;953;-68
2021/01/09 11:30:35;;;;;;;;;;;24.20;23.30;;;;;;491910;240;1647;-68
2021/01/09 11:32:37;;;;;;;;;;;24.20;23.30;;;;;;491837;240;2128;-68
2021/01/09 11:34:38;;;;;;;;;;;24.20;23.30;;;;;;491946;240;1022;-68
2021/01/09 11:36:39;;;;;;;;;;;24.20;23.30;;;;;;491809;240;1230;-68
2021/01/09 11:38:41;;;;;;;;;;;24.20;23.30;;;;;;491876;240;1081;-68
2021/01/09 11:40:42;;;;;;;;;;;24.20;23.30;;;;;;491990;240;947;-68
2021/01/09 11:42:43;;;;;;;;;;;24.20;23.30;;;;;;491850;240;1099;-68
2021/01/09 11:44:44;;;;;;;;;;;24.20;23.30;;;;;;491982;240;926;-68
2021/01/09 11:46:46;;;;;;;;;;;24.20;23.30;;;;;;491927;240;1216;-68
2021/01/09 11:48:47;;;;;;;;;;;24.20;23.30;;;;;;491927;240;991;-68
2021/01/09 11:50:48;;;;;;;;;;;24.20;23.30;;;;;;491936;240;934;-68
2021/01/09 11:52:49;;;;;;;;;;;24.20;23.30;;;;;;491866;240;2191;-68
2021/01/09 11:54:51;;;;;;;;;;;24.20;23.30;;;;;;491880;240;929;-68
2021/01/09 11:56:52;;;;;;;;;;;24.20;23.30;;;;;;491899;240;1232;-68
2021/01/09 11:58:53;;;;;;;;;;;24.20;23.30;;;;;;491934;240;985;-68